map of OLU home
OLU - Airport
Location
City:  Columbus, Nebraska, United States
Name:Columbus Municipal Airport
ICAO:KOLU
IATA:OLU
FAA LID:OLU

Details
Type:Airport (Airfield)
Use:Public/Civil
Latitude:4126'55"N (41.448722)
Longitude:9720'27"W (-97.340943)
Datum:WGS 1984
Elevation:1447 ft (441 m)
Variation:3.50E (WMM2015v2 magnetic declination)
-0.08 annual change
Runways:2
Longest:6801 × 100 ft (2073 × 30.5 m), paved

Time
Time Zone:UTC-6 (DST-5)
Local Time:

Weather
METAR:KOLU 041356Z AUTO 34015G23KT 10SM CLR M14/M18 A3000 RMK AO2 PK WND 33030/1313 SLP184 T11441178 FZRANO

Related Locations
Nearby:
Farthest:YAUG: 10611 mi / 17076 km
Augusta [Augusta Airport], WA, AU

Find:

   beyond  
but within

Other Information
Maps:
NOTAMs:
Links:
Sources:

  
  • flag of United States
  • flag of Nebraska
  

Sectional Chart

Flight Planning
at skyvector.com

Satellite Image

Google Maps Satellite view

 

Copyright © 2004-2019 Karl L. Swartz. All rights reserved.
The Great Circle Mapper name and logo are trademarks of the Great Circle Mapper.
All other trademarks mentioned herein belong to their respective owners.
Please see credits for attibutions and further copyright information.

  Follow gcmap on Facebook Follow gcmap on Twitter GCmap on LinkedIn

hCard Microformat

Geo Microformat